Time;durP1;ratioP1;P1;durP2;ratioP2;P2;SDS_P1;SDS_P2;PMS_P1;PMS_P2;Temp;Humidity;BMP_temperature;BMP_pressure;BME280_temperature;BME280_humidity;BME280_pressure;Samples;Min_cycle;Max_cycle;Signal;HPM_P1;HPM_P2
2023/10/30 00:00:46;;;;;;;5.03;2.00;;;;;;;;;;5052656;28;20226;-84
2023/10/30 00:03:14;;;;;;;2.57;2.20;;;;;;;;;;5052868;28;20234;-84
2023/10/30 00:05:42;;;;;;;3.30;1.93;;;;;;;;;;5052513;28;20287;-84
2023/10/30 00:08:09;;;;;;;3.53;1.87;;;;;;;;;;5052580;28;20206;-84
2023/10/30 00:10:36;;;;;;;2.60;2.40;;;;;;;;;;5052452;28;20230;-85
2023/10/30 00:13:03;;;;;;;2.00;1.80;;;;;;;;;;5052398;28;20218;-84
2023/10/30 00:15:30;;;;;;;2.87;1.40;;;;;;;;;;5052173;28;20255;-84
2023/10/30 00:17:57;;;;;;;1.80;1.20;;;;;;;;;;5052541;28;20226;-84
2023/10/30 00:20:24;;;;;;;2.63;1.47;;;;;;;;;;5052271;28;20226;-84
2023/10/30 00:22:53;;;;;;;6.73;3.73;;;;;;;;;;5052708;28;20226;-84
2023/10/30 00:25:21;;;;;;;2.30;1.70;;;;;;;;;;5052124;28;20213;-84
2023/10/30 00:27:48;;;;;;;4.73;2.00;;;;;;;;;;5052319;28;20289;-84
2023/10/30 00:30:15;;;;;;;1.90;1.57;;;;;;;;;;5051733;28;20564;-84
2023/10/30 00:32:42;;;;;;;3.53;1.70;;;;;;;;;;5052169;28;20225;-84
2023/10/30 00:35:09;;;;;;;1.60;1.50;;;;;;;;;;5052007;28;20205;-85
2023/10/30 00:37:36;;;;;;;2.13;1.27;;;;;;;;;;5052408;28;20226;-85
2023/10/30 00:40:05;;;;;;;1.67;1.57;;;;;;;;;;5051926;28;20217;-84
2023/10/30 00:42:32;;;;;;;10.37;5.50;;;;;;;;;;5051902;28;20222;-84
2023/10/30 00:44:59;;;;;;;12.57;6.50;;;;;;;;;;5052510;28;20206;-84
2023/10/30 00:47:26;;;;;;;4.20;1.90;;;;;;;;;;5051631;28;20233;-84
2023/10/30 00:49:54;;;;;;;1.73;1.60;;;;;;;;;;5052033;28;20214;-84
2023/10/30 00:52:21;;;;;;;1.77;1.07;;;;;;;;;;5051185;28;20245;-84
2023/10/30 00:54:48;;;;;;;32.73;10.13;;;;;;;;;;5042906;28;20203;-84
2023/10/30 00:57:16;;;;;;;37.77;22.23;;;;;;;;;;5032747;28;20234;-84
2023/10/30 00:59:43;;;;;;;4.27;3.97;;;;;;;;;;5052144;28;20210;-84
2023/10/30 01:02:10;;;;;;;5.90;2.83;;;;;;;;;;5051581;28;20230;-84
2023/10/30 01:04:37;;;;;;;9.80;4.07;;;;;;;;;;5051346;28;20715;-84
2023/10/30 01:07:04;;;;;;;43.70;26.20;;;;;;;;;;5051270;28;20241;-84
2023/10/30 01:09:32;;;;;;;16.53;11.83;;;;;;;;;;5051842;28;20206;-84
2023/10/30 01:11:59;;;;;;;8.77;3.53;;;;;;;;;;5051078;28;20299;-84
2023/10/30 01:14:28;;;;;;;1.80;1.30;;;;;;;;;;5051861;28;20202;-84
2023/10/30 01:16:55;;;;;;;2.87;1.40;;;;;;;;;;5050963;28;20745;-83
2023/10/30 01:19:22;;;;;;;1.60;1.43;;;;;;;;;;5051495;28;20206;-83
2023/10/30 01:21:49;;;;;;;2.47;1.40;;;;;;;;;;5051258;28;20245;-83
2023/10/30 01:24:16;;;;;;;1.40;1.30;;;;;;;;;;5051462;28;20207;-83
2023/10/30 01:26:43;;;;;;;3.77;1.40;;;;;;;;;;5051037;28;20833;-83
2023/10/30 01:29:10;;;;;;;1.43;1.33;;;;;;;;;;5051529;28;20198;-83
2023/10/30 01:31:39;;;;;;;2.97;1.47;;;;;;;;;;5050810;28;20253;-83
2023/10/30 01:34:07;;;;;;;2.37;1.20;;;;;;;;;;5051332;28;20206;-83
2023/10/30 01:36:34;;;;;;;2.47;1.17;;;;;;;;;;5050808;28;20241;-83
2023/10/30 01:39:01;;;;;;;6.57;1.40;;;;;;;;;;5050341;28;20233;-83
2023/10/30 01:41:28;;;;;;;1.53;1.33;;;;;;;;;;5050400;28;20245;-83
2023/10/30 01:43:56;;;;;;;2.90;1.43;;;;;;;;;;5051465;28;20213;-83
2023/10/30 01:46:23;;;;;;;2.40;1.43;;;;;;;;;;5050760;28;20234;-83
2023/10/30 01:48:51;;;;;;;2.30;1.30;;;;;;;;;;5051149;28;20205;-83
2023/10/30 01:51:19;;;;;;;3.30;1.47;;;;;;;;;;5050484;28;20237;-84
2023/10/30 01:53:48;;;;;;;3.27;1.53;;;;;;;;;;5051007;28;20198;-83
2023/10/30 01:56:15;;;;;;;1.10;1.10;;;;;;;;;;5050577;28;20237;-83
2023/10/30 01:58:42;;;;;;;1.30;1.07;;;;;;;;;;5051260;28;20226;-83
2023/10/30 02:01:09;;;;;;;3.70;1.70;;;;;;;;;;5050616;28;20226;-83
2023/10/30 02:03:36;;;;;;;1.50;1.40;;;;;;;;;;5051016;28;20572;-83
2023/10/30 02:06:05;;;;;;;1.50;1.33;;;;;;;;;;5050693;28;20641;-83
2023/10/30 02:08:32;;;;;;;2.10;1.53;;;;;;;;;;5042695;28;20241;-83
2023/10/30 02:10:59;;;;;;;1.57;1.07;;;;;;;;;;5047713;28;20234;-83
2023/10/30 02:13:27;;;;;;;0.90;0.90;;;;;;;;;;5050212;28;20209;-83
2023/10/30 02:15:54;;;;;;;1.40;1.17;;;;;;;;;;5050555;28;20234;-82
2023/10/30 02:18:21;;;;;;;2.57;1.43;;;;;;;;;;5051127;28;20222;-83
2023/10/30 02:20:48;;;;;;;2.40;1.63;;;;;;;;;;5050377;28;20234;-83
2023/10/30 02:23:16;;;;;;;3.27;1.30;;;;;;;;;;5050802;28;20222;-83
2023/10/30 02:25:45;;;;;;;2.90;1.10;;;;;;;;;;5050593;28;20233;-83
2023/10/30 02:28:12;;;;;;;1.30;1.20;;;;;;;;;;5051174;28;20206;-83
2023/10/30 02:30:39;;;;;;;1.20;1.00;;;;;;;;;;5050505;28;20230;-83
2023/10/30 02:33:06;;;;;;;2.23;1.20;;;;;;;;;;5050534;28;20720;-83
2023/10/30 02:35:33;;;;;;;2.00;1.60;;;;;;;;;;5050333;28;20230;-83
2023/10/30 02:38:00;;;;;;;1.83;1.67;;;;;;;;;;5050955;28;20258;-83
2023/10/30 02:40:27;;;;;;;1.67;1.20;;;;;;;;;;5050316;28;20233;-83
2023/10/30 02:42:55;;;;;;;1.07;1.07;;;;;;;;;;5050592;28;20234;-83
2023/10/30 02:45:22;;;;;;;1.97;1.27;;;;;;;;;;5050219;28;20711;-83
2023/10/30 02:47:50;;;;;;;3.60;1.13;;;;;;;;;;5050516;28;20213;-83
2023/10/30 02:50:17;;;;;;;3.83;1.30;;;;;;;;;;5052021;28;20217;-83
2023/10/30 02:52:44;;;;;;;4.83;1.33;;;;;;;;;;5053780;28;20248;-83
2023/10/30 02:55:11;;;;;;;1.37;1.00;;;;;;;;;;5053784;28;20208;-83
2023/10/30 02:57:38;;;;;;;2.37;1.20;;;;;;;;;;5054374;28;20202;-83
2023/10/30 03:00:07;;;;;;;1.10;1.03;;;;;;;;;;5053385;28;20687;-83
2023/10/30 03:02:34;;;;;;;0.97;0.97;;;;;;;;;;5054119;28;20230;-83
2023/10/30 03:05:01;;;;;;;5.00;1.37;;;;;;;;;;5053869;28;20672;-83
2023/10/30 03:07:28;;;;;;;1.17;1.03;;;;;;;;;;5053805;28;20702;-83
2023/10/30 03:09:55;;;;;;;0.90;0.90;;;;;;;;;;5053757;28;20206;-83
2023/10/30 03:12:22;;;;;;;1.00;1.00;;;;;;;;;;5053189;28;20240;-83
2023/10/30 03:14:49;;;;;;;1.30;1.20;;;;;;;;;;5054016;28;20205;-83
2023/10/30 03:17:18;;;;;;;2.83;1.23;;;;;;;;;;5053087;28;20234;-82
2023/10/30 03:19:45;;;;;;;1.20;1.10;;;;;;;;;;5053714;28;20233;-83
2023/10/30 03:22:12;;;;;;;1.30;1.20;;;;;;;;;;5053052;28;20242;-83
2023/10/30 03:24:39;;;;;;;1.20;1.07;;;;;;;;;;5053480;28;20692;-82
2023/10/30 03:27:06;;;;;;;0.97;0.97;;;;;;;;;;5052966;28;20230;-83
2023/10/30 03:29:36;;;;;;;1.37;1.10;;;;;;;;;;5053432;28;20240;-83
2023/10/30 03:32:03;;;;;;;3.60;1.30;;;;;;;;;;5052815;28;20234;-83
2023/10/30 03:34:31;;;;;;;2.30;1.13;;;;;;;;;;5053484;28;20225;-83
2023/10/30 03:36:58;;;;;;;1.77;1.27;;;;;;;;;;5052824;28;20234;-83
2023/10/30 03:39:26;;;;;;;1.20;1.10;;;;;;;;;;5053304;28;20712;-83
2023/10/30 03:41:53;;;;;;;0.90;0.90;;;;;;;;;;5052613;28;20657;-83
2023/10/30 03:44:23;;;;;;;2.37;1.23;;;;;;;;;;5053104;28;20202;-83
2023/10/30 03:46:50;;;;;;;1.57;1.17;;;;;;;;;;5052747;28;20712;-83
2023/10/30 03:49:17;;;;;;;1.23;1.10;;;;;;;;;;5053150;28;20210;-83
2023/10/30 03:51:46;;;;;;;3.23;1.40;;;;;;;;;;5052820;28;20240;-83
2023/10/30 03:54:13;;;;;;;1.27;1.23;;;;;;;;;;5053032;28;20232;-83
2023/10/30 03:56:41;;;;;;;1.33;1.00;;;;;;;;;;5052820;28;20229;-83
2023/10/30 03:59:08;;;;;;;1.20;1.10;;;;;;;;;;5053142;28;20225;-83
2023/10/30 04:01:36;;;;;;;0.97;0.87;;;;;;;;;;5051687;28;20621;-82
2023/10/30 04:04:03;;;;;;;1.07;1.03;;;;;;;;;;5053161;28;20198;-82
2023/10/30 04:06:30;;;;;;;1.20;1.10;;;;;;;;;;5052299;28;20230;-83
2023/10/30 04:08:58;;;;;;;2.10;1.30;;;;;;;;;;5053141;28;20202;-82
2023/10/30 04:11:25;;;;;;;3.23;1.50;;;;;;;;;;5052110;28;20238;-83
2023/10/30 04:13:52;;;;;;;1.10;1.00;;;;;;;;;;5052961;28;20608;-83
2023/10/30 04:16:20;;;;;;;1.57;1.47;;;;;;;;;;5051900;28;20230;-83
2023/10/30 04:18:47;;;;;;;3.40;1.00;;;;;;;;;;5052684;28;20222;-83
2023/10/30 04:21:14;;;;;;;4.63;1.00;;;;;;;;;;5052049;28;20605;-83
2023/10/30 04:23:43;;;;;;;1.00;0.90;;;;;;;;;;5052303;28;20216;-83
2023/10/30 04:26:12;;;;;;;2.47;1.27;;;;;;;;;;5052225;28;20234;-83
2023/10/30 04:28:39;;;;;;;1.37;0.90;;;;;;;;;;5052582;28;20202;-83
2023/10/30 04:31:07;;;;;;;0.90;0.90;;;;;;;;;;5051799;28;20712;-83
2023/10/30 04:33:34;;;;;;;1.23;1.17;;;;;;;;;;5051178;28;20202;-83
2023/10/30 04:36:02;;;;;;;1.20;1.10;;;;;;;;;;5051971;28;20288;-83
2023/10/30 04:38:31;;;;;;;3.20;1.20;;;;;;;;;;5052455;28;20233;-83
2023/10/30 04:40:58;;;;;;;1.00;0.90;;;;;;;;;;5051891;28;20226;-83
2023/10/30 04:43:27;;;;;;;3.93;1.47;;;;;;;;;;5052558;28;20249;-83
2023/10/30 04:45:54;;;;;;;0.90;0.90;;;;;;;;;;5052528;28;20252;-82
2023/10/30 04:48:21;;;;;;;1.37;1.00;;;;;;;;;;5051830;28;20213;-82
2023/10/30 04:50:48;;;;;;;1.03;1.03;;;;;;;;;;5051172;28;20233;-82
2023/10/30 04:53:15;;;;;;;1.47;1.27;;;;;;;;;;5051996;28;20221;-82
2023/10/30 04:55:42;;;;;;;2.83;1.03;;;;;;;;;;5051442;28;22152;-83
2023/10/30 04:58:09;;;;;;;1.20;1.10;;;;;;;;;;5051740;28;20214;-83
2023/10/30 05:00:37;;;;;;;1.37;1.20;;;;;;;;;;5055121;28;20795;-82
2023/10/30 05:03:04;;;;;;;1.90;0.90;;;;;;;;;;5071561;28;20237;-82
2023/10/30 05:05:31;;;;;;;1.53;1.30;;;;;;;;;;5054197;28;20267;-82
2023/10/30 05:07:58;;;;;;;1.40;1.30;;;;;;;;;;5052014;28;20210;-83
2023/10/30 05:10:25;;;;;;;1.27;1.10;;;;;;;;;;5059997;28;20233;-83
2023/10/30 05:12:52;;;;;;;1.43;1.17;;;;;;;;;;5069367;28;20233;-83
2023/10/30 05:15:21;;;;;;;2.23;1.13;;;;;;;;;;5051280;28;20202;-84
2023/10/30 05:17:49;;;;;;;1.30;1.20;;;;;;;;;;5049651;28;20208;-83
2023/10/30 05:20:16;;;;;;;2.27;1.30;;;;;;;;;;5050852;28;20214;-83
2023/10/30 05:22:44;;;;;;;1.10;1.10;;;;;;;;;;5051491;28;20225;-84
2023/10/30 05:25:11;;;;;;;1.57;1.20;;;;;;;;;;5050803;28;20206;-84
2023/10/30 05:27:38;;;;;;;6.40;1.30;;;;;;;;;;5051335;28;20214;-82
2023/10/30 05:30:06;;;;;;;1.37;1.13;;;;;;;;;;5050697;28;20206;-82
2023/10/30 05:32:33;;;;;;;1.37;1.33;;;;;;;;;;5052325;28;20603;-82
2023/10/30 05:35:01;;;;;;;0.97;0.97;;;;;;;;;;5054272;28;20210;-84
2023/10/30 05:37:28;;;;;;;1.97;1.10;;;;;;;;;;5050853;28;20222;-83
2023/10/30 05:39:55;;;;;;;2.87;1.37;;;;;;;;;;5051261;28;20225;-84
2023/10/30 05:42:22;;;;;;;1.40;1.33;;;;;;;;;;5050641;28;20916;-82
2023/10/30 05:44:51;;;;;;;3.50;1.27;;;;;;;;;;5050751;28;20676;-82
2023/10/30 05:47:18;;;;;;;2.30;1.20;;;;;;;;;;5050325;28;20716;-82
2023/10/30 05:49:45;;;;;;;1.57;1.10;;;;;;;;;;5051235;28;20202;-82
2023/10/30 05:52:14;;;;;;;1.40;1.30;;;;;;;;;;5050046;28;20230;-82
2023/10/30 05:54:41;;;;;;;1.70;1.60;;;;;;;;;;5050831;28;20194;-83
2023/10/30 05:57:09;;;;;;;1.73;1.30;;;;;;;;;;5050463;28;20263;-82
2023/10/30 05:59:36;;;;;;;1.27;1.20;;;;;;;;;;5051215;28;20221;-82
2023/10/30 06:02:03;;;;;;;1.83;1.30;;;;;;;;;;5050197;28;20241;-82
2023/10/30 06:04:30;;;;;;;1.90;1.30;;;;;;;;;;5050540;28;20577;-82
2023/10/30 06:06:57;;;;;;;1.27;1.20;;;;;;;;;;5050391;28;20241;-82
2023/10/30 06:09:26;;;;;;;2.00;1.37;;;;;;;;;;5050430;28;20202;-83
2023/10/30 06:11:54;;;;;;;1.20;1.20;;;;;;;;;;5050251;28;20280;-82
2023/10/30 06:14:21;;;;;;;1.53;1.43;;;;;;;;;;5061925;28;20209;-81
2023/10/30 06:16:48;;;;;;;1.37;1.27;;;;;;;;;;5058903;28;20272;-82
2023/10/30 06:19:16;;;;;;;1.20;1.13;;;;;;;;;;5049875;28;20257;-80
2023/10/30 06:21:44;;;;;;;1.30;1.27;;;;;;;;;;5048891;28;20234;-81
2023/10/30 06:24:11;;;;;;;1.57;1.47;;;;;;;;;;5050588;28;20248;-79
2023/10/30 06:26:41;;;;;;;1.73;1.40;;;;;;;;;;5054363;28;20233;-79
2023/10/30 06:29:08;;;;;;;1.20;1.00;;;;;;;;;;5054268;28;20236;-79
2023/10/30 06:31:35;;;;;;;1.33;1.30;;;;;;;;;;5054004;28;20237;-81
2023/10/30 06:34:03;;;;;;;2.73;1.47;;;;;;;;;;5054269;28;20301;-81
2023/10/30 06:36:30;;;;;;;1.60;1.50;;;;;;;;;;5053552;28;20230;-81
2023/10/30 06:38:57;;;;;;;3.33;1.50;;;;;;;;;;5043244;28;20222;-81
2023/10/30 06:41:24;;;;;;;1.90;1.50;;;;;;;;;;5051747;28;20248;-81
2023/10/30 06:43:53;;;;;;;1.60;1.50;;;;;;;;;;5049343;28;20209;-81
2023/10/30 06:46:20;;;;;;;1.10;1.10;;;;;;;;;;5052720;28;20230;-80
2023/10/30 06:48:47;;;;;;;2.57;1.57;;;;;;;;;;5052857;28;20217;-80
2023/10/30 06:51:14;;;;;;;1.43;1.33;;;;;;;;;;5053001;28;20230;-79
2023/10/30 06:53:41;;;;;;;1.27;1.10;;;;;;;;;;5054460;28;20198;-80
2023/10/30 06:56:09;;;;;;;2.60;1.20;;;;;;;;;;5053289;28;20604;-80
2023/10/30 06:58:36;;;;;;;1.60;1.23;;;;;;;;;;5047278;28;20206;-80
2023/10/30 07:01:05;;;;;;;1.40;1.30;;;;;;;;;;5045373;28;20571;-79
2023/10/30 07:03:33;;;;;;;3.07;1.37;;;;;;;;;;5053463;28;20206;-79
2023/10/30 07:06:00;;;;;;;1.50;1.40;;;;;;;;;;5052162;28;20253;-80
2023/10/30 07:08:27;;;;;;;2.63;1.40;;;;;;;;;;5052644;28;20747;-80
2023/10/30 07:10:55;;;;;;;1.33;1.23;;;;;;;;;;5052268;28;20696;-80
2023/10/30 07:13:22;;;;;;;1.03;1.03;;;;;;;;;;5051771;28;20280;-80
2023/10/30 07:15:50;;;;;;;1.40;1.30;;;;;;;;;;5052285;28;20225;-80
2023/10/30 07:18:18;;;;;;;1.60;1.50;;;;;;;;;;5052654;28;20217;-80
2023/10/30 07:20:45;;;;;;;1.17;1.17;;;;;;;;;;5046695;28;20231;-80
2023/10/30 07:23:12;;;;;;;1.67;1.57;;;;;;;;;;5042642;28;20231;-81
2023/10/30 07:25:39;;;;;;;1.27;1.27;;;;;;;;;;5052347;28;20309;-81
2023/10/30 07:28:06;;;;;;;1.10;1.10;;;;;;;;;;5052704;28;20574;-81
2023/10/30 07:30:33;;;;;;;1.30;1.20;;;;;;;;;;5048131;28;20304;-80
2023/10/30 07:33:00;;;;;;;1.43;1.27;;;;;;;;;;5048433;28;20229;-80
2023/10/30 07:35:29;;;;;;;1.90;1.70;;;;;;;;;;5051164;28;20261;-80
2023/10/30 07:37:56;;;;;;;1.40;1.30;;;;;;;;;;5052094;28;20574;-80
2023/10/30 07:40:25;;;;;;;1.20;1.20;;;;;;;;;;5049189;28;20250;-80
2023/10/30 07:42:54;;;;;;;1.20;1.20;;;;;;;;;;5046860;28;20222;-80
2023/10/30 07:45:21;;;;;;;1.60;1.50;;;;;;;;;;5051726;28;20248;-80
2023/10/30 07:47:48;;;;;;;2.10;1.60;;;;;;;;;;5052228;28;20209;-80
2023/10/30 07:50:17;;;;;;;1.60;1.50;;;;;;;;;;5050122;28;20291;-80
2023/10/30 07:52:46;;;;;;;1.83;1.73;;;;;;;;;;5045279;28;20317;-80
2023/10/30 07:55:13;;;;;;;1.80;1.63;;;;;;;;;;5051396;28;20648;-80
2023/10/30 07:57:40;;;;;;;1.50;1.40;;;;;;;;;;5052054;28;20202;-80
2023/10/30 08:00:09;;;;;;;1.50;1.40;;;;;;;;;;5051175;28;20230;-80
2023/10/30 08:02:36;;;;;;;2.87;1.37;;;;;;;;;;5043860;28;21116;-80
2023/10/30 08:05:03;;;;;;;5.63;1.97;;;;;;;;;;5044033;28;20233;-81
2023/10/30 08:07:30;;;;;;;2.10;1.90;;;;;;;;;;5051407;28;20199;-80
2023/10/30 08:09:58;;;;;;;3.13;2.10;;;;;;;;;;5051774;28;20198;-80
2023/10/30 08:12:25;;;;;;;5.47;3.33;;;;;;;;;;5050654;28;20253;-81
2023/10/30 08:14:53;;;;;;;1.90;1.80;;;;;;;;;;5051458;28;20652;-80
2023/10/30 08:17:20;;;;;;;1.40;1.33;;;;;;;;;;5050848;28;20226;-80
2023/10/30 08:19:48;;;;;;;1.53;1.43;;;;;;;;;;5051568;28;20245;-81
2023/10/30 08:22:15;;;;;;;1.73;1.27;;;;;;;;;;5050419;28;20237;-80
2023/10/30 08:24:42;;;;;;;1.60;1.50;;;;;;;;;;5051425;28;20209;-80
2023/10/30 08:27:10;;;;;;;2.53;1.60;;;;;;;;;;5050892;28;20747;-80
2023/10/30 08:29:37;;;;;;;1.40;1.40;;;;;;;;;;5043503;28;20207;-80
2023/10/30 08:32:04;;;;;;;3.20;1.27;;;;;;;;;;5050066;28;20234;-79
2023/10/30 08:34:31;;;;;;;1.33;1.33;;;;;;;;;;5050886;28;20210;-80
2023/10/30 08:36:58;;;;;;;1.57;1.50;;;;;;;;;;5050913;28;20233;-80
2023/10/30 08:39:25;;;;;;;1.87;1.77;;;;;;;;;;5048696;28;20213;-80
2023/10/30 08:41:52;;;;;;;1.80;1.70;;;;;;;;;;5044763;28;20229;-79
2023/10/30 08:44:21;;;;;;;4.93;1.97;;;;;;;;;;5050523;28;20217;-79
2023/10/30 08:46:48;;;;;;;2.70;1.90;;;;;;;;;;5042282;28;20257;-78
2023/10/30 08:49:15;;;;;;;3.90;2.60;;;;;;;;;;5050857;28;20202;-79
2023/10/30 08:51:42;;;;;;;3.53;2.60;;;;;;;;;;5050079;28;20601;-79
2023/10/30 08:54:09;;;;;;;5.03;2.90;;;;;;;;;;5050935;28;20210;-79
2023/10/30 08:56:38;;;;;;;4.50;2.77;;;;;;;;;;5050444;28;20221;-79
2023/10/30 08:59:05;;;;;;;2.17;2.00;;;;;;;;;;5050715;28;20209;-79
2023/10/30 09:01:34;;;;;;;2.90;2.47;;;;;;;;;;5046780;28;20341;-80
2023/10/30 09:04:01;;;;;;;2.57;2.30;;;;;;;;;;5045908;28;20198;-80
2023/10/30 09:06:28;;;;;;;2.43;2.23;;;;;;;;;;5049953;28;20233;-80
2023/10/30 09:08:55;;;;;;;2.53;2.30;;;;;;;;;;5050843;28;20206;-80
2023/10/30 09:11:22;;;;;;;2.33;1.67;;;;;;;;;;5048101;28;20237;-80
2023/10/30 09:13:50;;;;;;;1.53;1.43;;;;;;;;;;5044177;28;20720;-80
2023/10/30 09:16:17;;;;;;;1.73;1.63;;;;;;;;;;5049954;28;20644;-80
2023/10/30 09:18:45;;;;;;;3.07;1.23;;;;;;;;;;5050478;28;20719;-80
2023/10/30 09:21:12;;;;;;;3.93;1.60;;;;;;;;;;5049534;28;20241;-80
2023/10/30 09:23:42;;;;;;;2.67;1.53;;;;;;;;;;5042152;28;20252;-80
2023/10/30 09:26:10;;;;;;;1.77;1.67;;;;;;;;;;5050217;28;20236;-80
2023/10/30 09:28:37;;;;;;;1.83;1.73;;;;;;;;;;5049038;28;20300;-80
2023/10/30 09:31:04;;;;;;;1.50;1.40;;;;;;;;;;5049950;28;20703;-80
2023/10/30 09:33:33;;;;;;;3.10;1.80;;;;;;;;;;5049892;28;20208;-80
2023/10/30 09:36:01;;;;;;;1.60;1.50;;;;;;;;;;5041886;28;20226;-80
2023/10/30 09:38:33;;;;;;;2.77;1.90;;;;;;;;;;5041185;28;20229;-80
2023/10/30 09:41:03;;;;;;;1.73;1.60;;;;;;;;;;5044415;28;20754;-80
2023/10/30 09:43:33;;;;;;;1.70;1.60;;;;;;;;;;5049317;28;20233;-80
2023/10/30 09:46:01;;;;;;;2.60;2.40;;;;;;;;;;5049922;28;20225;-80
2023/10/30 09:48:30;;;;;;;2.27;2.07;;;;;;;;;;5050489;28;20212;-80
2023/10/30 09:50:58;;;;;;;1.70;1.60;;;;;;;;;;5049609;28;20230;-80
2023/10/30 09:53:26;;;;;;;1.20;1.20;;;;;;;;;;5049844;28;20214;-80
2023/10/30 09:55:54;;;;;;;1.47;1.30;;;;;;;;;;5049858;28;20676;-80
2023/10/30 09:58:23;;;;;;;1.60;1.50;;;;;;;;;;5049984;28;20210;-81
2023/10/30 10:00:51;;;;;;;3.03;1.70;;;;;;;;;;5053078;28;20275;-80
2023/10/30 10:03:20;;;;;;;1.20;1.20;;;;;;;;;;5053769;28;20244;-80
2023/10/30 10:05:54;;;;;;;1.37;1.27;;;;;;;;;;5054101;28;20303;-80
2023/10/30 10:08:22;;;;;;;2.13;1.20;;;;;;;;;;5054143;28;20221;-80
2023/10/30 10:10:56;;;;;;;1.30;1.30;;;;;;;;;;5053872;28;20226;-80
2023/10/30 10:13:24;;;;;;;1.53;1.10;;;;;;;;;;5053551;28;20216;-80
2023/10/30 10:15:51;;;;;;;1.30;1.30;;;;;;;;;;5053743;28;20600;-80
2023/10/30 10:18:25;;;;;;;1.30;1.20;;;;;;;;;;5053473;28;20217;-80
2023/10/30 10:20:56;;;;;;;1.13;1.03;;;;;;;;;;5053451;28;20307;-80
2023/10/30 10:23:23;;;;;;;3.87;1.13;;;;;;;;;;5053389;28;20225;-80
2023/10/30 10:25:55;;;;;;;1.30;1.03;;;;;;;;;;5053461;28;20575;-80
2023/10/30 10:28:23;;;;;;;0.90;0.90;;;;;;;;;;5053413;28;20232;-80
2023/10/30 10:30:51;;;;;;;1.00;1.00;;;;;;;;;;5053463;28;20226;-80
2023/10/30 10:33:19;;;;;;;1.00;0.97;;;;;;;;;;5053007;28;20230;-80
2023/10/30 10:35:48;;;;;;;1.30;1.20;;;;;;;;;;5053360;28;20226;-80
2023/10/30 10:38:16;;;;;;;0.70;0.70;;;;;;;;;;5045431;28;20680;-80
2023/10/30 10:40:45;;;;;;;1.17;1.07;;;;;;;;;;5052873;28;20229;-80
2023/10/30 10:43:13;;;;;;;2.23;1.30;;;;;;;;;;5052980;28;20271;-81
2023/10/30 10:45:42;;;;;;;1.00;1.00;;;;;;;;;;5052853;28;20238;-81
2023/10/30 10:48:09;;;;;;;1.10;1.00;;;;;;;;;;5053502;28;20312;-80
2023/10/30 10:50:37;;;;;;;1.10;1.03;;;;;;;;;;5052722;28;20236;-79
2023/10/30 10:53:05;;;;;;;1.13;1.00;;;;;;;;;;5046590;28;20322;-79
2023/10/30 10:55:33;;;;;;;0.90;0.90;;;;;;;;;;5051088;28;20260;-79
2023/10/30 10:58:07;;;;;;;2.30;1.03;;;;;;;;;;5053242;28;20209;-79
2023/10/30 11:00:38;;;;;;;1.20;1.10;;;;;;;;;;5052420;28;20237;-79
2023/10/30 11:03:07;;;;;;;1.47;1.37;;;;;;;;;;5046150;28;20732;-79
2023/10/30 11:05:35;;;;;;;1.20;1.07;;;;;;;;;;5043050;28;20238;-79
2023/10/30 11:08:07;;;;;;;0.90;0.90;;;;;;;;;;5052942;28;20210;-79
2023/10/30 11:10:35;;;;;;;0.93;0.93;;;;;;;;;;5052063;28;20249;-79
2023/10/30 11:13:08;;;;;;;2.30;1.20;;;;;;;;;;5046534;28;20240;-79
2023/10/30 11:15:38;;;;;;;1.40;1.30;;;;;;;;;;5050924;28;20313;-79
2023/10/30 11:18:16;;;;;;;2.63;2.33;;;;;;;;;;5052999;28;20206;-80
2023/10/30 11:20:43;;;;;;;7.70;1.83;;;;;;;;;;5052126;28;20287;-80
2023/10/30 11:23:12;;;;;;;2.23;1.60;;;;;;;;;;5052386;28;20225;-80
2023/10/30 11:25:47;;;;;;;1.40;1.20;;;;;;;;;;5049347;28;20234;-79
2023/10/30 11:28:14;;;;;;;1.23;1.20;;;;;;;;;;5048269;28;20767;-79
2023/10/30 11:30:42;;;;;;;6.87;1.47;;;;;;;;;;5051971;28;20226;-79
2023/10/30 11:33:19;;;;;;;2.30;1.10;;;;;;;;;;5052162;28;20719;-79
2023/10/30 11:35:48;;;;;;;2.17;1.90;;;;;;;;;;5044833;28;20255;-78
2023/10/30 11:38:18;;;;;;;3.00;1.40;;;;;;;;;;5053411;28;20214;-78
2023/10/30 11:41:00;;;;;;;2.93;1.50;;;;;;;;;;5043829;28;20229;-79
2023/10/30 11:43:30;;;;;;;1.10;1.10;;;;;;;;;;5052725;28;20551;-78
2023/10/30 11:46:02;;;;;;;1.40;1.30;;;;;;;;;;5052479;28;20234;-78
2023/10/30 11:48:31;;;;;;;1.20;1.17;;;;;;;;;;5052605;28;20233;-78
2023/10/30 11:50:58;;;;;;;1.47;1.40;;;;;;;;;;5051817;28;20253;-79
2023/10/30 11:53:27;;;;;;;4.23;1.60;;;;;;;;;;5052101;28;20206;-79
2023/10/30 11:55:54;;;;;;;1.40;1.27;;;;;;;;;;5051915;28;20233;-79
2023/10/30 11:58:21;;;;;;;2.87;1.20;;;;;;;;;;5052125;28;20206;-80
2023/10/30 12:00:49;;;;;;;3.67;1.30;;;;;;;;;;5051615;28;20283;-80
2023/10/30 12:03:16;;;;;;;2.90;1.17;;;;;;;;;;5052046;28;20233;-80
2023/10/30 12:05:45;;;;;;;2.30;1.20;;;;;;;;;;5051582;28;20226;-81
2023/10/30 12:08:13;;;;;;;1.17;1.17;;;;;;;;;;5052053;28;20677;-80
2023/10/30 12:10:40;;;;;;;2.20;1.20;;;;;;;;;;5051031;28;20312;-80
2023/10/30 12:13:07;;;;;;;1.07;1.00;;;;;;;;;;5051970;28;20300;-80
2023/10/30 12:15:34;;;;;;;1.57;1.47;;;;;;;;;;5051375;28;20229;-80
2023/10/30 12:18:01;;;;;;;1.00;1.00;;;;;;;;;;5052011;28;20217;-80
2023/10/30 12:20:28;;;;;;;0.90;0.90;;;;;;;;;;5050965;28;20240;-80
2023/10/30 12:22:57;;;;;;;1.33;1.17;;;;;;;;;;5050830;28;20226;-80
2023/10/30 12:25:24;;;;;;;1.57;1.10;;;;;;;;;;5051029;28;20718;-81
2023/10/30 12:27:51;;;;;;;1.40;1.30;;;;;;;;;;5051737;28;20244;-81
2023/10/30 12:30:20;;;;;;;4.33;1.37;;;;;;;;;;5051024;28;20738;-81
2023/10/30 12:32:54;;;;;;;2.00;1.30;;;;;;;;;;5050758;28;20278;-81
2023/10/30 12:35:21;;;;;;;1.27;1.17;;;;;;;;;;5051059;28;20707;-79
2023/10/30 12:37:48;;;;;;;2.93;1.57;;;;;;;;;;5051340;28;20210;-81
2023/10/30 12:40:17;;;;;;;2.27;1.20;;;;;;;;;;5051103;28;20592;-81
2023/10/30 12:42:44;;;;;;;1.20;1.10;;;;;;;;;;5050513;28;20249;-81
2023/10/30 12:45:12;;;;;;;1.17;1.10;;;;;;;;;;5046071;28;20207;-81
2023/10/30 12:47:39;;;;;;;1.13;1.13;;;;;;;;;;5049403;28;20214;-81
2023/10/30 12:50:07;;;;;;;0.83;0.83;;;;;;;;;;5050724;28;20213;-81
2023/10/30 12:52:34;;;;;;;6.10;1.33;;;;;;;;;;5050457;28;20225;-81
2023/10/30 12:55:01;;;;;;;1.50;1.40;;;;;;;;;;5051220;28;20202;-81
2023/10/30 12:57:29;;;;;;;1.30;1.20;;;;;;;;;;5050814;28;20230;-80
2023/10/30 12:59:57;;;;;;;1.43;1.33;;;;;;;;;;5050786;28;20208;-80
2023/10/30 13:02:24;;;;;;;1.80;1.13;;;;;;;;;;5050449;28;20237;-80
2023/10/30 13:04:51;;;;;;;6.63;1.33;;;;;;;;;;5050949;28;20225;-81
2023/10/30 13:07:18;;;;;;;1.67;1.47;;;;;;;;;;5043483;28;20242;-81
2023/10/30 13:09:45;;;;;;;1.10;1.10;;;;;;;;;;5049728;28;20213;-80
2023/10/30 13:12:13;;;;;;;2.97;1.33;;;;;;;;;;5050113;28;20271;-81
2023/10/30 13:14:41;;;;;;;1.17;1.10;;;;;;;;;;5050225;28;20210;-79
2023/10/30 13:17:12;;;;;;;1.90;1.30;;;;;;;;;;5050444;28;20692;-81
2023/10/30 13:19:40;;;;;;;1.10;1.10;;;;;;;;;;5049553;28;20683;-80
2023/10/30 13:22:07;;;;;;;2.80;1.20;;;;;;;;;;5048701;28;20226;-80
2023/10/30 13:24:34;;;;;;;5.93;1.50;;;;;;;;;;5049162;28;20678;-80
2023/10/30 13:27:01;;;;;;;2.23;1.47;;;;;;;;;;5050198;28;20226;-80
2023/10/30 13:29:28;;;;;;;1.13;1.13;;;;;;;;;;5050539;28;20254;-80
2023/10/30 13:31:57;;;;;;;1.53;1.27;;;;;;;;;;5049632;28;20229;-80
2023/10/30 13:34:24;;;;;;;0.97;0.97;;;;;;;;;;5049341;28;20688;-80
2023/10/30 13:36:51;;;;;;;1.10;1.10;;;;;;;;;;5041794;28;20222;-80
2023/10/30 13:39:18;;;;;;;3.23;1.23;;;;;;;;;;5050506;28;20205;-81
2023/10/30 13:41:46;;;;;;;1.13;1.13;;;;;;;;;;5049314;28;20604;-81
2023/10/30 13:44:13;;;;;;;1.50;1.40;;;;;;;;;;5050413;28;20234;-81
2023/10/30 13:46:40;;;;;;;1.00;1.00;;;;;;;;;;5048982;28;20237;-81
2023/10/30 13:49:09;;;;;;;1.10;1.10;;;;;;;;;;5050524;28;20206;-81
2023/10/30 13:51:37;;;;;;;3.07;1.27;;;;;;;;;;5048322;28;20353;-81
2023/10/30 13:54:04;;;;;;;1.20;1.20;;;;;;;;;;5041865;28;20229;-81
2023/10/30 13:56:31;;;;;;;3.33;1.37;;;;;;;;;;5049623;28;20221;-81
2023/10/30 13:58:58;;;;;;;2.27;1.33;;;;;;;;;;5050118;28;20260;-80
2023/10/30 14:01:25;;;;;;;1.00;1.00;;;;;;;;;;5049224;28;20238;-81
2023/10/30 14:03:53;;;;;;;1.13;1.10;;;;;;;;;;5037094;28;20230;-80
2023/10/30 14:06:21;;;;;;;2.43;1.40;;;;;;;;;;5049826;28;20313;-81
2023/10/30 14:08:48;;;;;;;3.63;1.10;;;;;;;;;;5049701;28;20205;-80
2023/10/30 14:11:15;;;;;;;2.20;1.27;;;;;;;;;;5047573;28;20590;-80
2023/10/30 14:13:42;;;;;;;0.97;0.97;;;;;;;;;;5037617;28;20213;-80
2023/10/30 14:16:10;;;;;;;1.20;1.10;;;;;;;;;;5048985;28;20286;-80
2023/10/30 14:18:37;;;;;;;1.20;1.10;;;;;;;;;;5046887;28;20199;-80
2023/10/30 14:21:04;;;;;;;1.43;1.33;;;;;;;;;;5049004;28;20236;-80
2023/10/30 14:23:32;;;;;;;1.40;1.30;;;;;;;;;;5048905;28;20289;-80
2023/10/30 14:25:59;;;;;;;1.30;1.20;;;;;;;;;;5049307;28;20340;-80
2023/10/30 14:28:25;;;;;;;1.40;1.30;;;;;;;;;;5049411;28;20207;-80
2023/10/30 14:30:52;;;;;;;1.00;1.00;;;;;;;;;;5046327;28;20229;-80
2023/10/30 14:33:19;;;;;;;0.90;0.90;;;;;;;;;;5046792;28;20222;-80
2023/10/30 14:35:47;;;;;;;2.40;1.20;;;;;;;;;;5049078;28;20233;-80
2023/10/30 14:38:14;;;;;;;2.10;1.20;;;;;;;;;;5046936;28;20582;-80
2023/10/30 14:40:42;;;;;;;1.83;1.10;;;;;;;;;;5048546;28;20226;-80
2023/10/30 14:43:09;;;;;;;1.50;1.40;;;;;;;;;;5046703;28;20245;-79
2023/10/30 14:45:36;;;;;;;1.70;1.30;;;;;;;;;;5047292;28;20230;-80